Time;durP1;ratioP1;P1;durP2;ratioP2;P2;SDS_P1;SDS_P2;PMS_P1;PMS_P2;Temp;Humidity;BMP_temperature;BMP_pressure;BME280_temperature;BME280_humidity;BME280_pressure;Samples;Min_cycle;Max_cycle;Signal;HPM_P1;HPM_P2
2021/10/07 00:01:55;;;;;;;4.75;2.70;;;;;;;12.48;53.84;100304.31;5074096;28;20024;-79
2021/10/07 00:04:20;;;;;;;6.65;3.42;;;;;;;12.37;54.00;100287.81;5074127;28;20099;-80
2021/10/07 00:06:45;;;;;;;4.82;3.03;;;;;;;11.78;53.66;100194.69;5074205;28;20028;-80
2021/10/07 00:09:11;;;;;;;7.35;3.85;;;;;;;11.81;54.08;100212.03;5073976;28;20028;-80
2021/10/07 00:11:37;;;;;;;7.22;3.05;;;;;;;11.54;54.62;100178.84;5073861;28;20046;-80
2021/10/07 00:14:04;;;;;;;6.95;2.88;;;;;;;12.35;53.98;100304.88;5073792;28;20025;-80
2021/10/07 00:16:30;;;;;;;8.05;3.17;;;;;;;12.31;54.29;100300.91;5073739;28;20028;-80
2021/10/07 00:18:55;;;;;;;6.35;3.40;;;;;;;12.14;54.28;100275.50;5073647;28;20417;-80
2021/10/07 00:21:21;;;;;;;5.45;3.30;;;;;;;12.28;55.05;100293.31;5073903;28;20074;-80
2021/10/07 00:24:28;;;;;;;4.90;2.80;;;;;;;11.44;54.26;100152.59;5073947;28;20055;-80
2021/10/07 00:26:43;;;;;;;6.25;2.75;;;;;;;12.09;54.73;100268.88;5067711;28;20044;-80
2021/10/07 00:31:48;;;;;;;7.20;3.15;;;;;;;11.78;54.78;100215.03;5073573;28;20016;-79
2021/10/07 00:39:23;;;;;;;7.80;4.18;;;;;;;10.83;55.01;100063.31;5072291;28;20044;-80
2021/10/07 00:41:48;;;;;;;9.10;2.92;;;;;;;12.15;55.03;100261.25;5072041;28;20024;-80
2021/10/07 00:44:13;;;;;;;7.45;2.95;;;;;;;12.12;55.00;100270.38;5073406;28;20051;-79
2021/10/07 00:46:49;;;;;;;5.78;2.90;;;;;;;11.98;55.14;100236.66;5073313;28;20035;-80
2021/10/07 00:49:16;;;;;;;7.75;3.38;;;;;;;12.14;54.79;100271.00;5073356;28;20511;-80
2021/10/07 00:51:41;;;;;;;5.60;3.13;;;;;;;11.41;54.71;100146.81;5073215;28;20078;-79
2021/10/07 00:54:07;;;;;;;5.53;3.25;;;;;;;12.17;54.72;100253.97;5073238;28;20544;-80
2021/10/07 00:56:33;;;;;;;5.93;3.15;;;;;;;12.08;55.12;100248.69;5073423;28;20071;-79
2021/10/07 00:59:01;;;;;;;5.95;3.22;;;;;;;11.37;55.05;100141.03;5073015;28;20063;-80
2021/10/07 01:01:27;;;;;;;7.50;3.25;;;;;;;11.93;54.62;100226.59;5073012;28;20024;-80
2021/10/07 01:03:52;;;;;;;6.18;2.72;;;;;;;12.15;55.09;100258.59;5072966;28;20417;-79
2021/10/07 01:06:18;;;;;;;4.95;3.10;;;;;;;11.76;55.07;100219.63;5072978;28;20515;-80
2021/10/07 01:08:43;;;;;;;6.70;3.25;;;;;;;11.95;54.99;100248.41;5071768;28;20020;-80
2021/10/07 01:11:08;;;;;;;10.07;3.70;;;;;;;11.88;55.16;100241.28;5072651;28;20054;-80
2021/10/07 01:13:38;;;;;;;7.30;3.20;;;;;;;12.02;55.49;100282.97;5072509;28;20511;-80
2021/10/07 01:16:04;;;;;;;7.28;3.22;;;;;;;11.66;55.40;100209.22;5072557;28;20031;-80
2021/10/07 01:18:29;;;;;;;6.10;3.60;;;;;;;11.65;55.81;100204.09;5072468;28;20024;-80
2021/10/07 01:20:55;;;;;;;5.22;3.58;;;;;;;11.96;55.69;100247.41;5072712;28;20032;-80
2021/10/07 01:23:20;;;;;;;5.10;2.78;;;;;;;11.77;55.81;100200.09;5072722;28;20016;-75
2021/10/07 01:25:46;;;;;;;9.85;3.70;;;;;;;12.04;55.23;100244.75;5072623;28;20029;-75
2021/10/07 01:28:11;;;;;;;11.95;3.45;;;;;;;12.04;55.46;100244.75;5072274;28;20017;-75
2021/10/07 01:30:36;;;;;;;8.65;3.58;;;;;;;12.12;55.74;100253.66;5072310;28;20028;-76
2021/10/07 01:33:02;;;;;;;5.57;3.13;;;;;;;12.14;55.13;100249.00;5072363;28;20510;-75
2021/10/07 01:35:27;;;;;;;9.15;3.47;;;;;;;11.97;55.60;100224.41;5072156;28;20548;-75
2021/10/07 01:37:53;;;;;;;7.85;3.70;;;;;;;11.97;55.85;100211.19;5070975;28;20090;-75
2021/10/07 01:40:18;;;;;;;9.18;3.20;;;;;;;12.12;55.44;100235.94;5072192;28;20025;-75
2021/10/07 01:42:44;;;;;;;8.82;3.50;;;;;;;12.09;56.48;100237.13;5072451;28;20032;-75
2021/10/07 01:45:12;;;;;;;7.75;4.13;;;;;;;11.68;55.54;100175.50;5072239;28;20558;-75
2021/10/07 01:47:38;;;;;;;7.63;4.22;;;;;;;11.98;56.09;100212.84;5071141;28;20074;-75
2021/10/07 01:50:07;;;;;;;10.05;4.20;;;;;;;12.14;56.02;100246.38;5071926;28;20055;-76
2021/10/07 01:52:32;;;;;;;8.68;3.67;;;;;;;12.11;56.19;100229.00;5071869;28;20039;-75
2021/10/07 01:54:58;;;;;;;10.45;4.15;;;;;;;12.08;56.34;100224.88;5071954;28;20024;-75
2021/10/07 01:57:23;;;;;;;6.40;3.63;;;;;;;12.05;56.03;100227.03;5071959;28;20024;-75
2021/10/07 01:59:49;;;;;;;6.57;3.72;;;;;;;11.31;56.24;100102.06;5071860;28;20031;-76
2021/10/07 02:02:14;;;;;;;6.97;3.75;;;;;;;12.12;55.65;100227.19;5071760;28;20027;-75
2021/10/07 02:04:39;;;;;;;7.60;3.72;;;;;;;11.99;56.14;100199.44;5071840;28;20024;-75
2021/10/07 02:07:05;;;;;;;7.90;4.22;;;;;;;12.23;55.63;100238.22;5070397;28;20072;-75
2021/10/07 02:09:30;;;;;;;7.88;3.88;;;;;;;12.05;55.97;100230.50;5071755;28;20055;-76
2021/10/07 02:11:56;;;;;;;10.35;4.05;;;;;;;12.17;55.79;100243.38;5071672;28;20474;-76
2021/10/07 02:14:23;;;;;;;9.13;3.40;;;;;;;12.15;56.36;100246.19;5071644;28;20520;-75
2021/10/07 02:16:48;;;;;;;7.20;4.30;;;;;;;11.77;56.92;100194.81;5071704;28;20056;-75
2021/10/07 02:19:13;;;;;;;9.15;3.88;;;;;;;11.95;56.68;100224.59;5071635;28;20416;-75
2021/10/07 02:21:39;;;;;;;7.72;3.70;;;;;;;12.00;56.38;100234.66;5071393;28;20035;-75
2021/10/07 02:24:04;;;;;;;7.38;3.78;;;;;;;11.71;56.67;100179.63;5071363;28;20424;-76
2021/10/07 02:26:30;;;;;;;8.30;3.63;;;;;;;11.34;56.75;100108.81;5071473;28;20025;-75
2021/10/07 02:28:55;;;;;;;10.90;3.60;;;;;;;11.93;57.51;100213.34;5071270;28;20020;-75
2021/10/07 02:31:22;;;;;;;8.27;3.20;;;;;;;11.72;56.87;100178.63;5071555;28;20051;-75
2021/10/07 02:33:49;;;;;;;7.60;3.60;;;;;;;12.06;56.94;100229.53;5071217;28;20097;-76
2021/10/07 02:36:15;;;;;;;8.30;4.00;;;;;;;11.52;57.40;100135.88;5071535;28;20383;-76
2021/10/07 02:38:40;;;;;;;7.32;3.55;;;;;;;11.96;56.89;100199.78;5069879;28;20409;-75
2021/10/07 02:41:06;;;;;;;6.95;3.72;;;;;;;11.67;56.90;100162.44;5071451;28;20028;-75
2021/10/07 02:43:31;;;;;;;9.88;4.15;;;;;;;12.17;56.92;100227.50;5071595;28;20033;-76
2021/10/07 02:45:57;;;;;;;7.00;3.85;;;;;;;12.25;56.83;100240.69;5071173;28;20055;-75
2021/10/07 02:48:22;;;;;;;9.63;4.15;;;;;;;12.12;56.82;100221.88;5071121;28;20031;-75
2021/10/07 02:50:48;;;;;;;7.68;4.22;;;;;;;11.89;56.93;100180.28;5071184;28;20025;-75
2021/10/07 02:53:13;;;;;;;7.68;4.30;;;;;;;12.21;57.02;100232.28;5071315;28;20039;-75
2021/10/07 02:55:39;;;;;;;9.73;4.68;;;;;;;12.19;56.94;100228.97;5071241;28;20405;-76
2021/10/07 02:58:04;;;;;;;7.38;4.03;;;;;;;12.14;57.04;100204.00;5071231;28;20055;-76
2021/10/07 03:00:29;;;;;;;8.85;5.15;;;;;;;12.33;57.23;100232.72;5070994;28;20037;-76
2021/10/07 03:02:55;;;;;;;7.45;4.53;;;;;;;12.41;57.35;100227.38;5071796;28;20024;-76
2021/10/07 03:05:20;;;;;;;8.27;4.22;;;;;;;12.39;56.60;100226.72;5073876;28;20028;-75
2021/10/07 03:07:46;;;;;;;8.88;4.15;;;;;;;12.45;56.70;100210.16;5073908;28;20024;-75
2021/10/07 03:10:11;;;;;;;8.50;4.60;;;;;;;12.51;56.52;100203.34;5075204;28;20020;-76
2021/10/07 03:12:37;;;;;;;8.85;4.88;;;;;;;12.53;57.12;100204.81;5075035;28;20024;-76
2021/10/07 03:15:03;;;;;;;12.10;4.72;;;;;;;11.79;56.83;100073.81;5074803;28;20056;-75
2021/10/07 03:17:29;;;;;;;9.32;4.93;;;;;;;12.43;56.46;100159.19;5073889;28;20082;-76
2021/10/07 03:19:54;;;;;;;10.77;5.38;;;;;;;12.59;56.76;100190.03;5075350;28;20489;-75
2021/10/07 03:22:21;;;;;;;8.85;4.75;;;;;;;12.40;56.34;100172.78;5073656;28;20036;-75
2021/10/07 03:24:47;;;;;;;7.55;4.75;;;;;;;12.54;56.34;100198.50;5074876;28;20016;-80
2021/10/07 03:27:12;;;;;;;8.82;4.15;;;;;;;12.50;57.55;100186.63;5073337;28;20044;-80
2021/10/07 03:29:38;;;;;;;8.95;4.70;;;;;;;11.89;57.44;100092.13;5074569;28;20101;-80
2021/10/07 03:32:04;;;;;;;9.30;4.45;;;;;;;12.53;56.94;100183.63;5074757;28;20036;-80
2021/10/07 03:34:29;;;;;;;9.93;4.85;;;;;;;12.58;57.25;100177.78;5073796;28;20150;-80
2021/10/07 03:36:55;;;;;;;8.20;4.03;;;;;;;12.59;57.67;100182.91;5073441;28;20074;-80
2021/10/07 03:39:20;;;;;;;9.30;4.28;;;;;;;12.29;57.23;100134.28;5074467;28;20029;-80
2021/10/07 03:41:46;;;;;;;8.60;4.55;;;;;;;12.59;57.99;100182.09;5074439;28;20103;-80
2021/10/07 03:44:11;;;;;;;11.75;4.30;;;;;;;12.59;57.42;100190.84;5074201;28;20066;-80
2021/10/07 03:46:37;;;;;;;13.93;5.20;;;;;;;12.33;57.65;100142.69;5074593;28;20035;-80
2021/10/07 03:49:03;;;;;;;10.90;4.75;;;;;;;12.55;57.24;100173.66;5074366;28;20020;-80
2021/10/07 03:51:29;;;;;;;9.32;4.72;;;;;;;12.58;57.72;100177.78;5074306;28;20032;-80
2021/10/07 03:53:54;;;;;;;9.45;4.93;;;;;;;12.69;57.32;100191.50;5074316;28;20500;-79
2021/10/07 03:56:19;;;;;;;10.05;4.80;;;;;;;12.52;57.53;100155.47;5074536;28;20482;-79
2021/10/07 03:58:45;;;;;;;10.25;5.07;;;;;;;12.68;57.30;100184.53;5074085;28;20032;-80
2021/10/07 04:01:10;;;;;;;9.73;5.15;;;;;;;12.77;57.31;100192.44;5074340;28;20031;-79
2021/10/07 04:03:36;;;;;;;12.10;4.90;;;;;;;12.76;58.30;100191.59;5073955;28;20031;-79
2021/10/07 04:06:01;;;;;;;10.65;4.85;;;;;;;12.16;57.98;100093.50;5074190;28;20037;-80
2021/10/07 04:08:27;;;;;;;9.07;4.45;;;;;;;11.62;58.38;99998.97;5074134;28;20496;-80
2021/10/07 04:10:52;;;;;;;11.18;5.00;;;;;;;12.27;58.42;100095.72;5074083;28;20428;-80
2021/10/07 04:13:18;;;;;;;10.40;5.13;;;;;;;12.48;57.76;100125.03;5073950;28;20112;-80
2021/10/07 04:15:46;;;;;;;15.63;5.57;;;;;;;12.92;58.29;100177.41;5073882;28;20025;-80
2021/10/07 04:18:12;;;;;;;11.75;6.38;;;;;;;12.93;57.83;100184.38;5073945;28;20050;-80
2021/10/07 04:20:38;;;;;;;12.38;6.00;;;;;;;12.93;58.22;100179.88;5072614;28;20028;-80
2021/10/07 04:23:03;;;;;;;13.25;7.03;;;;;;;12.36;58.27;100092.03;5073874;28;20048;-80
2021/10/07 04:25:28;;;;;;;14.38;7.85;;;;;;;12.58;58.07;100124.81;5073718;28;20024;-80
2021/10/07 04:27:56;;;;;;;21.23;9.02;;;;;;;12.54;58.13;100124.34;5073745;28;20020;-80
2021/10/07 04:30:21;;;;;;;19.20;10.52;;;;;;;12.86;58.16;100178.94;5073754;28;20021;-80
2021/10/07 04:32:47;;;;;;;22.63;12.32;;;;;;;12.80;58.48;100173.53;5073631;28;20028;-80
2021/10/07 04:35:12;;;;;;;21.98;12.82;;;;;;;12.43;58.06;100113.34;5073422;28;20029;-79
2021/10/07 04:37:37;;;;;;;17.58;11.32;;;;;;;12.47;58.49;100117.28;5073290;28;20028;-80
2021/10/07 04:40:05;;;;;;;15.18;10.98;;;;;;;12.62;58.58;100142.81;5073118;28;20496;-80
2021/10/07 04:42:30;;;;;;;23.52;11.63;;;;;;;12.38;58.60;100105.91;5073185;28;20035;-80
2021/10/07 04:44:56;;;;;;;21.88;10.35;;;;;;;12.80;58.89;100162.94;5073335;28;20020;-80
2021/10/07 04:47:21;;;;;;;17.35;10.43;;;;;;;12.78;58.20;100188.78;5072111;28;20512;-80
2021/10/07 04:49:47;;;;;;;14.63;9.73;;;;;;;12.56;58.26;100137.41;5073511;28;20036;-80
2021/10/07 04:52:12;;;;;;;17.25;9.77;;;;;;;12.34;58.37;100105.44;5073218;28;20433;-80
2021/10/07 04:54:38;;;;;;;19.30;9.05;;;;;;;12.73;58.59;100178.72;5071765;28;20493;-80
2021/10/07 04:57:03;;;;;;;24.00;12.98;;;;;;;12.47;58.18;100149.06;5073107;28;20090;-80
2021/10/07 04:59:29;;;;;;;28.63;15.95;;;;;;;12.62;58.75;100179.09;5071710;28;20024;-80
2021/10/07 05:01:54;;;;;;;27.25;15.00;;;;;;;12.61;58.44;100174.78;5073035;28;20036;-80
2021/10/07 05:04:20;;;;;;;37.17;18.23;;;;;;;12.73;58.87;100187.50;5072927;28;20021;-80
2021/10/07 05:06:45;;;;;;;49.47;23.15;;;;;;;12.46;58.98;100139.47;5071679;28;20029;-80
2021/10/07 05:09:10;;;;;;;54.22;27.00;;;;;;;12.76;58.80;100186.31;5072878;28;20095;-80
2021/10/07 05:11:36;;;;;;;57.03;28.58;;;;;;;12.66;58.80;100169.81;5072632;28;20114;-81
2021/10/07 05:14:01;;;;;;;47.15;23.80;;;;;;;12.27;58.97;100101.03;5072791;28;20057;-79
2021/10/07 05:16:26;;;;;;;28.15;16.85;;;;;;;12.82;59.19;100185.59;5072791;28;20021;-80
2021/10/07 05:18:52;;;;;;;23.58;11.23;;;;;;;12.63;58.62;100147.16;5072895;28;20032;-80
2021/10/07 05:21:17;;;;;;;19.63;9.88;;;;;;;12.93;58.37;100181.72;5072504;28;20055;-80
2021/10/07 05:23:43;;;;;;;17.98;9.32;;;;;;;12.96;58.46;100176.88;5072448;28;20028;-76
2021/10/07 05:26:08;;;;;;;16.92;7.70;;;;;;;12.55;58.54;100115.41;5071709;28;20028;-75
2021/10/07 05:28:34;;;;;;;19.63;8.77;;;;;;;13.00;58.62;100177.34;5072248;28;20025;-74
2021/10/07 05:30:59;;;;;;;19.13;8.18;;;;;;;12.66;58.73;100116.84;5072112;28;20024;-75
2021/10/07 05:33:25;;;;;;;20.67;7.70;;;;;;;13.07;59.03;100188.06;5072102;28;20462;-75
2021/10/07 05:35:50;;;;;;;15.55;7.35;;;;;;;12.85;59.22;100147.31;5072002;28;20497;-75
2021/10/07 05:38:17;;;;;;;13.40;7.78;;;;;;;13.09;58.74;100180.75;5071813;28;20032;-75
2021/10/07 05:40:43;;;;;;;13.45;7.78;;;;;;;13.26;58.91;100196.38;5071855;28;20471;-75
2021/10/07 05:43:10;;;;;;;16.20;7.18;;;;;;;13.37;58.70;100195.13;5072123;28;20115;-75
2021/10/07 05:45:35;;;;;;;14.43;7.07;;;;;;;13.33;58.66;100169.97;5072051;28;20056;-75
2021/10/07 05:48:02;;;;;;;16.73;7.60;;;;;;;13.37;58.80;100168.59;5071881;28;20051;-74
2021/10/07 05:50:27;;;;;;;21.15;7.22;;;;;;;13.41;58.82;100164.59;5071858;28;20090;-76
2021/10/07 05:52:53;;;;;;;18.95;7.85;;;;;;;13.61;58.78;100191.44;5071821;28;20028;-75
2021/10/07 05:55:18;;;;;;;18.02;7.72;;;;;;;13.68;58.51;100193.16;5071703;28;20020;-75
2021/10/07 05:57:44;;;;;;;13.40;7.38;;;;;;;13.73;58.07;100205.91;5071711;28;20020;-76
2021/10/07 06:00:10;;;;;;;12.38;6.80;;;;;;;13.28;58.30;100125.41;5071489;28;20118;-75
2021/10/07 06:02:36;;;;;;;15.82;7.30;;;;;;;13.11;58.59;100101.88;5071494;28;20020;-75
2021/10/07 06:05:02;;;;;;;14.52;6.82;;;;;;;13.84;58.48;100216.06;5071504;28;20405;-75
2021/10/07 06:07:28;;;;;;;12.00;6.03;;;;;;;13.70;58.30;100176.25;5070239;28;20413;-74
2021/10/07 06:09:53;;;;;;;22.77;7.45;;;;;;;13.22;58.49;100096.97;5071407;28;20070;-76
2021/10/07 06:12:19;;;;;;;15.60;6.63;;;;;;;13.86;58.87;100203.44;5071499;28;20029;-77
2021/10/07 06:14:44;;;;;;;15.05;6.80;;;;;;;13.76;58.62;100170.19;5071275;28;20025;-76
2021/10/07 06:17:10;;;;;;;14.25;7.53;;;;;;;13.77;58.56;100171.84;5071529;28;20031;-76
2021/10/07 06:19:39;;;;;;;14.77;7.07;;;;;;;13.99;58.22;100211.56;5061902;28;20025;-76
2021/10/07 06:22:05;;;;;;;21.20;8.30;;;;;;;14.16;58.16;100216.72;5058137;28;20032;-75
2021/10/07 06:24:31;;;;;;;15.63;7.50;;;;;;;14.22;58.23;100210.66;5059353;28;20024;-75
2021/10/07 06:26:57;;;;;;;19.23;7.72;;;;;;;14.28;57.75;100201.97;5051298;28;20021;-75
2021/10/07 06:29:22;;;;;;;14.38;7.32;;;;;;;14.03;57.83;100158.91;5069502;28;20024;-75
2021/10/07 06:31:48;;;;;;;16.77;6.47;;;;;;;14.11;57.94;100173.94;5070963;28;20451;-76
2021/10/07 06:34:13;;;;;;;14.00;6.75;;;;;;;14.33;57.62;100202.22;5068124;28;20524;-76
2021/10/07 06:36:39;;;;;;;15.05;6.72;;;;;;;14.40;57.77;100218.25;5068154;28;20020;-76
2021/10/07 06:39:06;;;;;;;14.13;6.65;;;;;;;14.44;57.64;100212.41;5069328;28;20033;-75
2021/10/07 06:41:32;;;;;;;15.18;6.28;;;;;;;14.48;57.87;100213.66;5071262;28;20111;-75
2021/10/07 06:43:57;;;;;;;15.80;6.38;;;;;;;13.84;57.35;100101.91;5071148;28;20035;-75
2021/10/07 06:46:25;;;;;;;17.58;6.63;;;;;;;14.52;57.45;100199.00;5055458;28;20028;-75
2021/10/07 06:48:54;;;;;;;15.30;6.93;;;;;;;14.63;57.18;100209.13;5050962;28;20032;-75
2021/10/07 06:51:21;;;;;;;11.35;6.32;;;;;;;14.60;57.20;100193.56;5069363;28;20025;-75
2021/10/07 06:53:49;;;;;;;16.23;7.43;;;;;;;14.72;57.07;100209.03;5062111;28;20475;-76
2021/10/07 06:56:15;;;;;;;12.75;6.80;;;;;;;14.79;56.91;100213.41;5060936;28;20567;-76
2021/10/07 06:58:40;;;;;;;18.95;7.25;;;;;;;14.65;56.94;100192.19;5064280;28;20025;-77
2021/10/07 07:01:06;;;;;;;18.65;6.13;;;;;;;14.88;56.67;100227.41;5061275;28;20059;-76
2021/10/07 07:03:31;;;;;;;25.30;7.00;;;;;;;14.93;56.68;100222.34;5066571;28;20055;-76
2021/10/07 07:05:57;;;;;;;17.35;6.85;;;;;;;14.99;56.66;100221.59;5060612;28;20501;-75
2021/10/07 07:08:22;;;;;;;17.95;6.95;;;;;;;15.05;56.63;100220.00;5066204;28;20032;-76
2021/10/07 07:10:48;;;;;;;17.98;6.18;;;;;;;15.04;56.52;100203.22;5065705;28;20412;-76
2021/10/07 07:13:13;;;;;;;13.32;6.32;;;;;;;15.13;56.41;100214.56;5068153;28;20505;-76
2021/10/07 07:15:39;;;;;;;19.95;7.80;;;;;;;15.14;56.32;100213.53;5051729;28;20021;-76
2021/10/07 07:18:04;;;;;;;16.70;6.22;;;;;;;15.12;56.32;100192.47;5060101;28;20032;-76
2021/10/07 07:20:29;;;;;;;19.83;6.55;;;;;;;15.20;56.41;100213.59;5057967;28;20021;-75
2021/10/07 07:22:55;;;;;;;21.77;8.13;;;;;;;15.12;56.19;100187.13;5069388;28;20028;-75
2021/10/07 07:25:20;;;;;;;20.67;7.40;;;;;;;15.23;56.31;100199.09;5069927;28;20066;-80
2021/10/07 07:27:46;;;;;;;21.23;8.52;;;;;;;15.17;56.07;100178.59;5068107;28;20067;-80
2021/10/07 07:30:12;;;;;;;21.33;8.63;;;;;;;15.37;55.90;100202.69;5066904;28;20028;-80
2021/10/07 07:32:38;;;;;;;20.08;6.50;;;;;;;15.38;55.99;100199.00;5054193;28;20126;-80
2021/10/07 07:35:04;;;;;;;23.67;7.90;;;;;;;15.02;56.21;100130.81;5064154;28;20054;-80
2021/10/07 07:37:30;;;;;;;18.63;7.40;;;;;;;15.29;55.90;100173.56;5065212;28;20027;-80
2021/10/07 07:39:55;;;;;;;18.73;6.30;;;;;;;15.20;56.09;100148.94;5064854;28;20021;-80
2021/10/07 07:42:21;;;;;;;20.10;6.30;;;;;;;15.27;55.76;100147.16;5057823;28;20048;-80
2021/10/07 07:44:47;;;;;;;21.02;6.78;;;;;;;15.57;55.81;100193.84;5050733;28;20032;-80
2021/10/07 07:47:12;;;;;;;15.77;7.25;;;;;;;14.74;55.56;100100.66;5050301;28;20040;-80
2021/10/07 07:49:39;;;;;;;17.98;6.45;;;;;;;14.56;55.47;100027.53;5064645;28;20032;-80
2021/10/07 07:52:05;;;;;;;16.20;6.70;;;;;;;15.00;55.33;100076.16;5069285;28;20027;-79
2021/10/07 07:54:31;;;;;;;16.40;6.78;;;;;;;15.62;55.51;100169.34;5071458;28;20032;-80
2021/10/07 07:56:57;;;;;;;20.23;6.40;;;;;;;15.22;55.32;100097.19;5061279;28;20420;-80
2021/10/07 07:59:22;;;;;;;21.33;6.97;;;;;;;14.85;55.04;100023.88;5069168;28;20029;-80
2021/10/07 08:01:48;;;;;;;17.77;7.28;;;;;;;15.58;54.67;100128.13;5063626;28;20025;-80
2021/10/07 08:04:13;;;;;;;20.45;7.50;;;;;;;16.17;54.88;100215.53;5067547;28;20420;-80
2021/10/07 08:06:38;;;;;;;18.98;5.93;;;;;;;16.06;54.43;100197.44;5069696;28;20032;-80
2021/10/07 08:09:05;;;;;;;15.55;6.10;;;;;;;16.19;54.43;100211.66;5065931;28;20489;-80
2021/10/07 08:11:31;;;;;;;18.80;7.22;;;;;;;15.14;54.61;100035.34;5072850;28;20036;-79
2021/10/07 08:13:58;;;;;;;17.58;7.43;;;;;;;16.23;54.58;100220.06;5066700;28;20024;-79
2021/10/07 08:16:26;;;;;;;19.42;6.68;;;;;;;16.25;54.34;100220.69;5071121;28;20020;-80
2021/10/07 08:18:51;;;;;;;23.95;5.80;;;;;;;16.26;54.21;100213.53;5069460;28;20017;-80
2021/10/07 08:21:17;;;;;;;19.92;7.53;;;;;;;15.72;54.43;100129.06;5061298;28;20051;-80
2021/10/07 08:23:44;;;;;;;20.98;7.03;;;;;;;16.33;54.45;100217.03;5065727;28;20036;-79
2021/10/07 08:26:09;;;;;;;18.02;6.43;;;;;;;16.04;54.19;100168.34;5070064;28;20020;-79
2021/10/07 08:28:35;;;;;;;27.35;10.40;;;;;;;16.20;54.51;100197.31;5068549;28;20033;-80
2021/10/07 08:31:00;;;;;;;20.45;7.07;;;;;;;16.23;54.42;100200.59;5071400;28;20601;-80
2021/10/07 08:33:26;;;;;;;19.13;7.88;;;;;;;16.34;54.54;100211.50;5070126;28;20413;-80
2021/10/07 08:35:51;;;;;;;15.68;6.50;;;;;;;16.23;54.24;100169.44;5071934;28;20159;-80
2021/10/07 08:38:17;;;;;;;15.65;5.75;;;;;;;16.59;53.65;100209.16;5072890;28;20032;-79
2021/10/07 08:40:43;;;;;;;16.05;6.82;;;;;;;16.66;53.48;100185.22;5072832;28;20077;-80
2021/10/07 08:43:09;;;;;;;18.35;6.28;;;;;;;16.92;52.80;100206.59;5071571;28;20020;-80
2021/10/07 08:45:35;;;;;;;19.55;8.93;;;;;;;16.89;52.92;100207.00;5054142;28;20429;-80
2021/10/07 08:48:00;;;;;;;27.02;10.98;;;;;;;16.63;52.79;100166.91;5052782;28;20024;-80
2021/10/07 08:50:26;;;;;;;21.73;5.88;;;;;;;16.78;53.07;100205.75;5050912;28;20032;-79
2021/10/07 08:52:52;;;;;;;18.10;5.63;;;;;;;16.74;53.13;100214.34;5057135;28;20386;-79
2021/10/07 08:55:18;;;;;;;17.25;5.90;;;;;;;16.33;53.00;100119.25;5069741;28;20390;-80
2021/10/07 08:57:45;;;;;;;13.30;4.95;;;;;;;16.94;53.12;100219.72;5070255;28;20036;-79
2021/10/07 09:00:12;;;;;;;20.02;5.80;;;;;;;17.00;52.90;100202.91;5069346;28;20026;-80
2021/10/07 09:02:39;;;;;;;21.20;5.53;;;;;;;16.98;52.83;100205.78;5067105;28;20021;-79
2021/10/07 09:05:15;;;;;;;17.30;4.78;;;;;;;16.97;52.70;100185.47;5070721;28;20028;-80
2021/10/07 09:08:04;;;;;;;13.27;4.28;;;;;;;16.99;52.96;100198.59;5072538;28;20020;-79
2021/10/07 09:10:43;;;;;;;18.50;6.22;;;;;;;16.99;52.43;100190.59;5072465;28;20016;-80
2021/10/07 09:13:21;;;;;;;14.68;6.47;;;;;;;17.00;52.53;100189.56;5071339;28;20027;-79
2021/10/07 09:15:50;;;;;;;22.42;6.88;;;;;;;16.78;52.36;100149.75;5071292;28;20039;-79
2021/10/07 09:18:18;;;;;;;20.05;5.03;;;;;;;17.11;52.58;100197.81;5070880;28;20025;-79
2021/10/07 09:20:49;;;;;;;22.38;9.00;;;;;;;17.09;52.29;100185.69;5069806;28;20016;-79
2021/10/07 09:23:22;;;;;;;16.48;5.05;;;;;;;17.12;52.33;100180.78;5071324;28;20024;-79
2021/10/07 09:26:10;;;;;;;21.27;6.43;;;;;;;17.25;51.96;100179.13;5071709;28;20032;-79
2021/10/07 09:28:50;;;;;;;14.57;7.05;;;;;;;17.32;52.19;100177.28;5070961;28;20031;-79
2021/10/07 09:31:23;;;;;;;18.75;7.13;;;;;;;17.07;51.99;100126.38;5072066;28;20020;-78
2021/10/07 09:33:52;;;;;;;21.30;5.53;;;;;;;17.28;51.78;100170.72;5071782;28;20095;-80
2021/10/07 09:36:19;;;;;;;14.60;4.47;;;;;;;17.38;51.70;100182.63;5069190;28;20107;-79
2021/10/07 09:38:51;;;;;;;16.13;6.80;;;;;;;17.32;51.90;100186.13;5062208;28;20501;-80
2021/10/07 09:41:27;;;;;;;22.17;5.97;;;;;;;17.30;51.87;100188.16;5071669;28;20103;-80
2021/10/07 09:43:56;;;;;;;18.40;5.93;;;;;;;17.27;52.48;100177.09;5070801;28;20013;-79
2021/10/07 09:46:51;;;;;;;16.40;4.88;;;;;;;17.21;53.83;100172.56;5069665;28;20036;-80
2021/10/07 09:49:18;;;;;;;11.10;4.68;;;;;;;17.17;53.80;100169.50;5057185;28;20100;-80
2021/10/07 09:51:49;;;;;;;13.30;4.47;;;;;;;17.18;54.38;100178.31;5064473;28;20107;-79
2021/10/07 09:54:19;;;;;;;17.83;6.35;;;;;;;17.11;54.42;100176.47;5066325;28;20456;-79
2021/10/07 09:56:56;;;;;;;11.63;4.85;;;;;;;17.02;54.56;100159.00;5061728;28;20039;-79
2021/10/07 09:59:24;;;;;;;14.48;4.28;;;;;;;16.62;54.43;100104.78;5056850;28;20031;-80
2021/10/07 10:01:51;;;;;;;16.58;4.50;;;;;;;16.90;54.52;100149.97;5066963;28;20021;-79
2021/10/07 10:04:17;;;;;;;22.92;5.07;;;;;;;16.56;54.29;100104.78;5071077;28;20020;-80
2021/10/07 10:06:43;;;;;;;13.55;5.38;;;;;;;16.58;54.27;100079.56;5063365;28;20077;-80
2021/10/07 10:09:09;;;;;;;11.38;4.85;;;;;;;17.11;54.13;100147.13;5054762;28;20028;-80
2021/10/07 10:11:34;;;;;;;12.63;5.35;;;;;;;17.07;54.18;100139.69;5068237;28;20056;-79
2021/10/07 10:14:00;;;;;;;15.38;6.90;;;;;;;16.95;53.53;100117.34;5061098;28;20064;-79
2021/10/07 10:16:26;;;;;;;16.88;5.20;;;;;;;17.25;53.65;100163.94;5067559;28;20031;-80
2021/10/07 10:18:59;;;;;;;17.10;4.88;;;;;;;17.18;53.14;100140.97;5076571;28;20028;-80
2021/10/07 10:21:27;;;;;;;10.13;3.50;;;;;;;17.37;52.99;100164.16;5066319;28;20116;-80
2021/10/07 10:23:54;;;;;;;14.10;4.00;;;;;;;17.25;52.94;100136.44;5070294;28;20020;-80
2021/10/07 10:26:20;;;;;;;16.45;3.85;;;;;;;17.40;53.03;100163.72;5063970;28;20545;-79
2021/10/07 10:28:51;;;;;;;15.57;4.18;;;;;;;17.10;53.12;100112.63;5068474;28;20095;-80
2021/10/07 10:31:19;;;;;;;11.50;3.90;;;;;;;17.44;53.11;100164.94;5061442;28;20032;-80
2021/10/07 10:33:50;;;;;;;13.27;4.68;;;;;;;17.01;53.34;100096.00;5065828;28;20420;-79
2021/10/07 10:36:37;;;;;;;13.83;5.93;;;;;;;17.29;53.07;100143.81;5055018;28;20029;-79
2021/10/07 10:39:28;;;;;;;14.13;5.63;;;;;;;17.03;52.89;100096.59;5068098;28;20033;-80
2021/10/07 10:41:59;;;;;;;10.63;4.90;;;;;;;17.33;53.13;100147.72;5066915;28;20489;-81
2021/10/07 10:44:27;;;;;;;15.75;5.28;;;;;;;17.38;53.14;100158.59;5060094;28;20025;-80
2021/10/07 10:47:08;;;;;;;11.63;4.00;;;;;;;17.40;53.18;100155.72;5057459;28;20041;-79
2021/10/07 10:49:52;;;;;;;10.80;5.80;;;;;;;17.39;53.12;100152.22;5070288;28;20099;-79
2021/10/07 10:52:37;;;;;;;12.73;4.07;;;;;;;17.32;53.09;100148.75;5070753;28;20113;-80
2021/10/07 10:55:07;;;;;;;8.13;3.58;;;;;;;17.33;53.11;100139.72;5070542;28;20025;-80
2021/10/07 10:57:35;;;;;;;11.38;7.45;;;;;;;17.34;53.36;100141.34;5070649;28;20059;-79
2021/10/07 11:00:16;;;;;;;9.63;3.92;;;;;;;17.38;53.06;100142.59;5070581;28;20413;-80
2021/10/07 11:02:44;;;;;;;10.95;3.03;;;;;;;16.46;53.04;99999.38;5069782;28;20028;-80
2021/10/07 11:05:24;;;;;;;10.02;2.90;;;;;;;17.19;53.05;100110.59;5050581;28;20028;-79
2021/10/07 11:08:11;;;;;;;11.98;3.58;;;;;;;17.37;53.56;100148.94;5067545;28;20496;-79
2021/10/07 11:10:50;;;;;;;7.57;2.40;;;;;;;17.35;53.31;100129.66;5069940;28;20467;-79
2021/10/07 11:13:21;;;;;;;7.72;2.53;;;;;;;17.01;53.77;100097.84;5052847;28;20462;-80
2021/10/07 11:15:57;;;;;;;5.55;2.30;;;;;;;17.10;54.19;100100.13;5050203;28;20025;-79
2021/10/07 11:18:31;;;;;;;8.40;2.45;;;;;;;17.34;53.66;100135.19;5068709;28;20473;-80
2021/10/07 11:20:58;;;;;;;8.00;3.05;;;;;;;17.27;53.83;100126.38;5070332;28;20052;-79
2021/10/07 11:23:23;;;;;;;8.43;3.58;;;;;;;17.39;53.90;100138.06;5070626;28;20017;-76
2021/10/07 11:25:53;;;;;;;8.82;2.35;;;;;;;17.37;54.43;100130.25;5073520;28;20405;-76
2021/10/07 11:28:29;;;;;;;5.38;2.20;;;;;;;17.01;55.09;100087.16;5072746;28;20028;-76